This is the latest recevied weather packets stored in our database for station/object KI4HRG. If no packets are shown the sender has not sent any weather packets the latest 10 day(s).
| Time | Temp. | Humidity | Pressure | Rain* | Wind** | Luminosity | Snow |
|---|---|---|---|---|---|---|---|
| 1788111339 | 32.22° C | 63% | 1020.1 hPa | 0 mm | - | 653 W/m² | - |
| 1788111033 | 32.22° C | 64% | 1020.1 hPa | 0 mm | - | 739 W/m² | - |
| 1788110730 | 32.22° C | 64% | 1020.3 hPa | 0 mm | - | 766 W/m² | - |
| 1788110426 | 31.67° C | 65% | 1020.2 hPa | 0 mm | - | 737 W/m² | - |
| 1788110127 | 31.67° C | 67% | 1020.4 hPa | 0 mm | - | 178 W/m² | - |
| 1788109826 | 30.56° C | 68% | 1020.4 hPa | 0 mm | - | 721 W/m² | - |
| 1788109521 | 31.11° C | 69% | 1020.6 hPa | 0 mm | - | 167 W/m² | - |
| 1788109220 | 31.67° C | 68% | 1020.7 hPa | 0 mm | - | 771 W/m² | - |
| 1788108915 | 31.11° C | 70% | 1020.6 hPa | 0 mm | - | 186 W/m² | - |
| 1788108611 | 31.11° C | 71% | 1020.6 hPa | 0 mm | - | 849 W/m² | - |
| 1788108307 | 31.11° C | 70% | 1020.6 hPa | 0 mm | - | 824 W/m² | - |
| 1788108003 | 30° C | 73% | 1020.7 hPa | 0 mm | - | 411 W/m² | - |
| 1788107700 | 29.44° C | 73% | 1020.6 hPa | 0 mm | - | 819 W/m² | - |
| 1788107399 | 30.56° C | 73% | 1021 hPa | 0 mm | - | 219 W/m² | - |
| 1788107095 | 31.11° C | 70% | 1021.1 hPa | 0 mm | - | 809 W/m² | - |
| 1788106794 | 30° C | 72% | 1021.1 hPa | 0 mm | - | 812 W/m² | - |
| 1788106489 | 30° C | 74% | 1021.2 hPa | 0 mm | - | 828 W/m² | - |
| 1788106184 | 30.56° C | 72% | 1021.3 hPa | 0 mm | - | 848 W/m² | - |
| 1788105881 | 30° C | 74% | 1021.2 hPa | 0 mm | - | 646 W/m² | - |
| 1788105575 | 29.44° C | 75% | 1021.2 hPa | 0 mm | - | 229 W/m² | - |
| 1788105272 | 28.89° C | 77% | 1021.3 hPa | 0 mm | - | 886 W/m² | - |
| 1788104966 | 28.33° C | 78% | 1021.4 hPa | 0 mm | - | 243 W/m² | - |
| 1788104662 | 28.89° C | 78% | 1021.5 hPa | 0 mm | - | 183 W/m² | - |
| 1788104358 | 28.89° C | 78% | 1021.3 hPa | 0 mm | - | 199 W/m² | - |
| 1788104054 | 28.89° C | 78% | 1021.2 hPa | 0 mm | - | 301 W/m² | - |
* Rain latest hour (hover to see other rain measurements)
** Current wind speed in m/s (hover to see current wind gust speed)